KDEN/DEN METAR and TAF weather

Enter ICAO airport designator
Station Type Date Time Source
KDEN METAR 2018/10/21 02:53 UTC NOAA

KDEN 210253Z 16011KT 10SM CLR 08/M02 A3029 RMK AO2 SLP231 T00781022 58003


Station Type Date Time Source
KDEN Decoded METAR 2018/10/21 02:53 UTC NOAA

DENVER INTERNATIONAL AIRPORT, CO, United States (KDEN) 39-52N 104-40W 1640M
Oct 20, 2018 - 10:53 PM EDT / 2018.10.21 0253 UTC
Wind: from the SSE (160 degrees) at 13 MPH (11 KT):0
Visibility: 10 mile(s):0
Sky conditions: clear
Temperature: 46.0 F (7.8 C)
Dew Point: 28.0 F (-2.2 C)
Relative Humidity: 49%
Pressure (altimeter): 30.29 in. Hg (1025 hPa)
Pressure tendency: 0.01 inches (0.3 hPa) lower than three hours ago
ob: KDEN 210253Z 16011KT 10SM CLR 08/M02 A3029 RMK AO2 SLP231 T00781022 58003
cycle: 3

Station Type Date Time Source
KDEN TAF 2018/10/21 03:58 UTC NOAA

TAF
AMD KDEN 210255Z 2103/2206 17012KT P6SM SKC
FM210500 21011KT P6SM SKC
FM211500 25007KT P6SM FEW250
FM211700 VRB04KT P6SM FEW250
FM212100 05007KT P6SM FEW150 SCT250
FM220100 12010KT P6SM FEW150 SCT220


Example: see airport list